createdAt,value
2023-11-06T00:03:12.013Z,12.2
2023-11-06T00:09:02.710Z,12.2
2023-11-06T00:14:55.342Z,12.1
2023-11-06T00:20:58.410Z,12
2023-11-06T00:26:49.226Z,11.9
2023-11-06T00:32:40.800Z,11.9
2023-11-06T00:38:36.431Z,11.9
2023-11-06T00:44:27.607Z,11.9
2023-11-06T00:50:19.945Z,11.8
2023-11-06T00:56:11.690Z,11.8
2023-11-06T01:01:47.471Z,11.7
2023-11-06T01:07:24.663Z,11.6
2023-11-06T01:13:01.443Z,11.6
2023-11-06T01:18:22.303Z,11.6
2023-11-06T01:24:08.596Z,11.5
2023-11-06T01:29:59.889Z,11.4
2023-11-06T01:35:36.532Z,11.4
2023-11-06T01:41:12.349Z,11.4
2023-11-06T01:47:04.889Z,11.4
2023-11-06T01:52:56.734Z,11.3
2023-11-06T01:58:32.304Z,11.3
2023-11-06T02:04:25.041Z,11.2
2023-11-06T02:10:01.349Z,11.1
2023-11-06T02:15:53.855Z,11
2023-11-06T02:21:49.945Z,10.9
2023-11-06T02:27:48.891Z,10.8
2023-11-06T02:33:41.122Z,10.6
2023-11-06T02:39:34.043Z,10.5
2023-11-06T02:45:26.783Z,10.4
2023-11-06T02:51:20.453Z,10.3
2023-11-06T02:57:12.621Z,10.1
2023-11-06T03:03:04.006Z,9.9
2023-11-06T03:08:57.342Z,9.8
2023-11-06T03:14:49.560Z,9.7
2023-11-06T03:20:41.314Z,9.6
2023-11-06T03:26:33.148Z,9.5
2023-11-06T03:32:25.433Z,9.4
2023-11-06T03:38:17.837Z,9.4
2023-11-06T03:44:10.473Z,9.3
2023-11-06T03:50:07.156Z,9.1
2023-11-06T03:55:58.225Z,9
2023-11-06T04:01:34.582Z,8.9
2023-11-06T04:07:27.613Z,8.8
2023-11-06T04:13:22.068Z,8.7
2023-11-06T04:19:15.569Z,8.7
2023-11-06T04:25:08.041Z,8.7
2023-11-06T04:30:59.519Z,8.6
2023-11-06T04:36:36.537Z,8.6
2023-11-06T04:42:30.390Z,8.6
2023-11-06T04:48:22.289Z,8.5
2023-11-06T04:54:14.246Z,8.4
2023-11-06T05:00:06.199Z,8.4
2023-11-06T05:05:47.028Z,8.4
2023-11-06T05:11:38.715Z,8.3
2023-11-06T05:17:30.257Z,8.3
2023-11-06T05:23:11.458Z,8.2
2023-11-06T05:29:03.145Z,8.1
2023-11-06T05:34:40.643Z,8.1
2023-11-06T05:40:17.512Z,8.3
2023-11-06T05:45:53.653Z,8.4
2023-11-06T05:51:46.122Z,8.8
2023-11-06T05:57:23.965Z,9.4
2023-11-06T06:03:04.548Z,10.3
2023-11-06T06:08:41.912Z,11.3
2023-11-06T06:14:20.422Z,12.5
2023-11-06T06:19:57.867Z,13.9
2023-11-06T06:25:34.562Z,15.6
2023-11-06T06:31:12.831Z,17.5
2023-11-06T06:36:34.526Z,19.5
2023-11-06T06:42:11.261Z,46.8
2023-11-06T06:47:31.816Z,42.6
2023-11-06T06:53:08.831Z,40.9
2023-11-06T06:58:45.868Z,41.9
2023-11-06T07:04:22.481Z,55.4
2023-11-06T07:10:00.294Z,55.5
2023-11-06T07:15:37.135Z,56
2023-11-06T07:21:14.042Z,56.3
2023-11-06T07:26:35.963Z,56.8
2023-11-06T07:32:12.914Z,57.3
2023-11-06T07:38:05.776Z,57.9
2023-11-06T07:49:20.200Z,59.1
2023-11-06T07:54:56.514Z,59.6
2023-11-06T08:00:42.484Z,60.2
2023-11-06T08:06:40.299Z,60.7
2023-11-06T08:17:56.780Z,61.3
2023-11-06T08:23:34.648Z,61.8
2023-11-06T08:29:26.367Z,62.4
2023-11-06T08:35:20.947Z,62.9
2023-11-06T08:41:13.503Z,63.5
2023-11-06T08:46:49.757Z,64
2023-11-06T08:52:32.865Z,64.5
2023-11-06T08:58:25.330Z,65
2023-11-06T09:04:18.325Z,65.4
2023-11-06T09:10:11.484Z,65.9
2023-11-06T09:15:48.844Z,66.4
2023-11-06T09:21:41.220Z,66.9
2023-11-06T09:27:36.198Z,67.3
2023-11-06T09:33:29.955Z,67.8
2023-11-06T09:39:23.192Z,68.2
2023-11-06T09:50:55.160Z,69.3
2023-11-06T09:56:35.772Z,69.9
2023-11-06T10:02:13.116Z,70.4
2023-11-06T10:08:05.839Z,70.9
2023-11-06T10:14:04.043Z,71.1
2023-11-06T10:19:41.366Z,71.4
2023-11-06T10:25:34.406Z,70.8
2023-11-06T10:31:14.657Z,71.1
2023-11-06T10:36:55.523Z,72.3
2023-11-06T10:42:48.507Z,72.8
2023-11-06T10:49:00.459Z,73.3
2023-11-06T10:54:53.423Z,72.7
2023-11-06T11:00:58.700Z,73
2023-11-06T11:06:53.159Z,73.8
2023-11-06T11:12:47.516Z,74.3
2023-11-06T11:18:44.815Z,74.8
2023-11-06T11:24:38.037Z,74.5
2023-11-06T11:30:31.522Z,74.1
2023-11-06T11:36:30.261Z,74.6
2023-11-06T11:42:23.761Z,74.9
2023-11-06T11:48:15.745Z,74.3
2023-11-06T11:54:08.264Z,74.5
2023-11-06T11:59:45.112Z,75
2023-11-06T12:05:38.850Z,74.5
2023-11-06T12:11:37.398Z,74.2
2023-11-06T12:17:36.035Z,74.8
2023-11-06T12:23:30.142Z,74.4
2023-11-06T12:29:07.552Z,73.3
2023-11-06T12:35:02.729Z,72.3
2023-11-06T12:40:55.211Z,71.4
2023-11-06T12:46:57.749Z,70.5
2023-11-06T12:52:55.948Z,69.6
2023-11-06T12:58:47.171Z,68.8
2023-11-06T13:04:42.028Z,67.9
2023-11-06T13:10:34.629Z,67.1
2023-11-06T13:16:20.811Z,66.4
2023-11-06T13:21:58.626Z,65.6
2023-11-06T13:27:49.555Z,64.2
2023-11-06T13:33:44.319Z,61
2023-11-06T13:39:37.000Z,58.1
2023-11-06T13:45:28.878Z,55.4
2023-11-06T13:51:20.920Z,53
2023-11-06T13:57:30.765Z,50.7
2023-11-06T14:03:07.724Z,48.8
2023-11-06T14:09:00.222Z,46.9
2023-11-06T14:14:51.987Z,45.1
2023-11-06T14:20:28.574Z,43.6
2023-11-06T14:26:20.055Z,41.9
2023-11-06T14:32:11.929Z,40.4
2023-11-06T14:38:04.687Z,39
2023-11-06T14:43:56.980Z,37.6
2023-11-06T14:50:00.459Z,35.8
2023-11-06T14:56:07.774Z,33.8
2023-11-06T15:01:59.921Z,32.2
2023-11-06T15:07:54.071Z,30.7
2023-11-06T15:13:46.137Z,29.4
2023-11-06T15:19:39.192Z,28.1
2023-11-06T15:25:35.915Z,26.9
2023-11-06T15:31:28.588Z,25.8
2023-11-06T15:37:22.305Z,24.7
2023-11-06T15:43:18.697Z,23.6
2023-11-06T15:49:21.410Z,22.7
2023-11-06T15:55:13.967Z,21.9
2023-11-06T16:06:31.159Z,20.4
2023-11-06T16:12:23.426Z,19.7
2023-11-06T16:18:16.039Z,19.1
2023-11-06T16:24:11.244Z,18.4
2023-11-06T16:29:47.980Z,17.8
2023-11-06T16:35:54.061Z,17.1
2023-11-06T16:41:47.018Z,16.6
2023-11-06T16:47:39.441Z,16.1
2023-11-06T16:53:32.225Z,15.5
2023-11-06T16:59:24.297Z,15.1
2023-11-06T17:05:17.607Z,14.6
2023-11-06T17:11:14.046Z,14.3
2023-11-06T17:17:08.716Z,13.9
2023-11-06T17:23:07.772Z,13.6
2023-11-06T17:28:59.751Z,13.2
2023-11-06T17:34:52.744Z,12.9
2023-11-06T17:40:45.249Z,12.6
2023-11-06T17:46:42.867Z,12.3
2023-11-06T17:52:35.493Z,11.9
2023-11-06T17:58:27.934Z,11.6
2023-11-06T18:04:23.411Z,11.4
2023-11-06T18:09:59.929Z,11.1
2023-11-06T18:15:51.202Z,10.9
2023-11-06T18:21:44.470Z,10.6
2023-11-06T18:27:36.173Z,10.4
2023-11-06T18:33:28.168Z,10.1
2023-11-06T18:39:05.480Z,9.9
2023-11-06T18:44:41.703Z,9.7
2023-11-06T18:50:34.293Z,9.5
2023-11-06T18:56:27.280Z,9.3
2023-11-06T19:02:18.601Z,9.1
2023-11-06T19:08:18.767Z,8.9
2023-11-06T19:14:11.846Z,8.8
2023-11-06T19:20:04.204Z,8.6
2023-11-06T19:25:56.185Z,8.4
2023-11-06T19:31:51.707Z,8.3
2023-11-06T19:37:44.280Z,8.2
2023-11-06T19:43:36.342Z,8
2023-11-06T19:49:32.732Z,7.9
2023-11-06T19:55:24.443Z,7.8
2023-11-06T20:01:51.585Z,7.6
2023-11-06T20:07:45.277Z,7.5
2023-11-06T20:13:36.718Z,7.4
2023-11-06T20:19:30.234Z,7.3
2023-11-06T20:25:22.759Z,7.1
2023-11-06T20:31:01.256Z,6.9
2023-11-06T20:36:39.309Z,6.8
2023-11-06T20:42:17.870Z,6.8
2023-11-06T20:47:54.512Z,6.7
2023-11-06T20:53:47.710Z,6.6
2023-11-06T20:59:39.890Z,6.6
2023-11-06T21:05:17.446Z,6.5
2023-11-06T21:11:09.870Z,6.4
2023-11-06T21:17:01.990Z,6.3
2023-11-06T21:22:54.012Z,6.2
2023-11-06T21:28:46.229Z,6.1
2023-11-06T21:34:42.791Z,6
2023-11-06T21:40:19.712Z,5.9
2023-11-06T21:45:56.791Z,5.9
2023-11-06T21:51:49.826Z,5.8
2023-11-06T21:57:55.368Z,5.7
2023-11-06T22:03:48.822Z,5.6
2023-11-06T22:09:36.138Z,5.5
2023-11-06T22:15:18.421Z,5.4
2023-11-06T22:20:43.705Z,5.3
2023-11-06T22:26:04.009Z,5.3
2023-11-06T22:31:55.819Z,5.1
2023-11-06T22:37:49.331Z,5.1
2023-11-06T22:43:27.348Z,4.9
2023-11-06T22:49:20.417Z,4.9
2023-11-06T22:54:57.343Z,4.8
2023-11-06T23:00:33.706Z,4.8
2023-11-06T23:06:10.919Z,4.7
2023-11-06T23:12:03.692Z,4.6
2023-11-06T23:17:55.748Z,4.5
2023-11-06T23:23:48.031Z,4.4
2023-11-06T23:29:44.689Z,4.4
2023-11-06T23:35:37.492Z,4.3
2023-11-06T23:41:35.939Z,4.3
2023-11-06T23:47:32.793Z,4.2
2023-11-06T23:53:25.655Z,4.1
2023-11-06T23:59:17.212Z,4
